EDT,Max TemperatureF,Mean TemperatureF,Min TemperatureF,Max Dew PointF,MeanDew PointF,Min DewpointF,Max Humidity, Mean Humidity, Min Humidity, Max Sea Level PressureIn, Mean Sea Level PressureIn, Min Sea Level PressureIn, Max VisibilityMiles, Mean VisibilityMiles, Min VisibilityMiles, Max Wind SpeedMPH, Mean Wind SpeedMPH, Max Gust SpeedMPH,PrecipitationIn, CloudCover, Events, WindDirDegrees
2013-7-1,70,65,60,62,61,58,93,83,73,30.06,30.00,29.92,10,8,4,18,10,23,0.11,8,Rain,37
2013-7-2,78,69,59,66,62,57,93,83,73,30.09,30.06,30.02,10,9,6,12,6,16,0.01,7,Rain,40
2013-7-3,88,77,66,72,68,65,100,77,53,30.14,30.11,30.07,10,8,2,15,6,18,0.11,6,Rain-Thunderstorm,174
2013-7-4,83,77,70,70,69,66,93,76,58,30.19,30.14,30.11,10,9,3,17,7,21,0.02,7,Rain-Thunderstorm,210
2013-7-5,83,77,70,71,68,66,93,80,67,30.13,30.11,30.07,10,10,6,20,8,24,T,6,Rain,212
2013-7-6,84,76,68,69,67,66,93,76,58,30.15,30.10,30.03,10,10,8,12,6,16,0.01,6,,227
2013-7-7,80,76,72,71,68,65,93,78,62,30.06,30.01,29.96,10,10,7,22,13,29,0.02,7,Rain,227
2013-7-8,80,76,71,69,67,64,90,74,58,30.07,30.02,29.99,10,8,5,18,9,23,0.05,7,Rain-Thunderstorm,231
2013-7-9,80,75,70,72,69,66,93,84,74,30.05,29.99,29.90,10,8,4,15,8,17,0.04,7,Rain,208
2013-7-10,82,76,69,73,69,54,93,81,68,29.89,29.82,29.74,10,9,2,25,14,35,T,7,Rain,226
2013-7-11,76,69,62,60,57,53,78,62,46,30.07,29.97,29.86,10,10,10,14,6,21,0.00,3,,270
2013-7-12,75,68,60,63,61,58,97,81,64,30.18,30.12,30.03,10,10,8,12,5,14,0.00,4,,51
2013-7-13,83,72,61,69,64,58,90,74,58,30.24,30.20,30.17,10,10,10,13,6,21,0.00,5,,65
2013-7-14,91,80,68,71,68,65,90,69,47,30.30,30.26,30.24,10,10,10,10,5,15,0.00,2,,175
2013-7-15,90,82,74,73,69,55,94,66,37,30.31,30.27,30.24,10,10,10,12,5,16,0.00,4,,233
2013-7-16,92,82,71,75,70,62,94,66,38,30.29,30.25,30.21,10,10,9,13,6,22,0.00,2,,228
2013-7-17,89,83,77,76,74,71,94,77,59,30.25,30.19,30.10,10,8,5,22,13,28,0.00,4,,226
2013-7-18,89,83,77,76,73,70,94,78,61,30.11,30.04,29.96,10,9,5,23,12,28,0.00,5,,231
2013-7-19,88,78,68,73,69,63,97,76,54,29.94,29.83,29.74,10,8,0,32,16,51,1.46,5,Fog-Rain-Thunderstorm,251
2013-7-20,81,73,65,70,67,61,93,76,58,29.90,29.79,29.72,10,8,2,25,9,32,0.42,7,Rain-Thunderstorm,248
2013-7-21,80,73,65,63,60,57,81,68,54,30.00,29.97,29.91,10,10,10,13,5,25,0.00,5,,46
2013-7-22,79,71,62,66,62,57,84,71,58,29.99,29.88,29.77,10,10,2,13,6,17,0.10,7,Rain-Thunderstorm,96
2013-7-23,79,71,63,70,66,56,93,79,64,29.76,29.69,29.63,10,9,1,24,9,33,0.33,6,Rain-Thunderstorm,258
2013-7-24,68,62,56,55,50,46,84,66,48,30.05,29.91,29.75,10,10,10,22,9,28,0.00,4,,329
2013-7-25,74,63,52,54,50,47,89,65,41,30.13,30.10,30.06,10,10,10,14,5,17,0.00,2,,79
2013-7-26,79,66,53,57,53,48,83,63,42,30.13,30.07,30.00,10,10,10,12,4,14,0.00,3,,94
2013-7-27,78,70,61,64,60,55,87,71,54,29.99,29.90,29.81,10,10,10,18,7,22,0.09,7,Rain,165
2013-7-28,72,67,62,64,56,51,93,73,53,29.99,29.89,29.80,10,10,10,21,11,26,T,6,Rain,238
2013-7-29,69,64,58,58,55,52,93,78,63,30.16,30.05,29.97,10,10,5,23,11,31,0.09,6,Rain-Thunderstorm,224
2013-7-30,73,65,57,59,56,53,87,72,57,30.21,30.18,30.15,10,10,10,15,6,18,0.00,5,,237
2013-7-31,78,68,57,64,56,51,87,63,39,30.16,30.07,29.92,10,10,10,14,6,17,0.00,6,,181